WetterOnline ( http://www.wetteronline.de )

Wetter aktuell List

Aktuelles Wetter: List/Sylt (29m)

6-stündlich | Neueste Meldungen
Ortszeit Temperatur Wetter
Fr, 25.05. 8:00 16.3° C wolkig
Fr, 25.05. 2:00 14.9° C fast wolkenlos
Do, 24.05. 20:00 20.7° C wolkenlos
Do, 24.05. 14:00 22.6° C wolkenlos
Do, 24.05. 8:00 16.3° C wolkenlos
Do, 24.05. 2:00 16.5° C wolkenlos
Mi, 23.05. 20:00 19.8° C fast wolkenlos
Mi, 23.05. 14:00 20.7° C wolkenlos
Ortszeit Temperatur Wetter
Fr, 25.05. 10:10 20.4° C wolkenlos
Fr, 25.05. 10:00 19.7° C fast wolkenlos
Fr, 25.05. 9:50 19.7° C fast wolkenlos
Fr, 25.05. 9:40 19.8° C leicht bewölkt
Fr, 25.05. 9:30 18.9° C leicht bewölkt
Fr, 25.05. 9:20 18.9° C leicht bewölkt
Fr, 25.05. 9:00 18.0° C leicht bewölkt
Fr, 25.05. 8:30 17.2° C wolkig
Fr, 25.05. 8:00 16.3° C wolkig
Fr, 25.05. 7:30 15.3° C fast wolkenlos
Fr, 25.05. 7:00 14.8° C wolkenlos
Ortszeit Relative Feuchte Sichtweite
Fr, 25.05. 8:00 76% 6 km
Fr, 25.05. 2:00 72% 40 km
Do, 24.05. 20:00 48% 11 km
Do, 24.05. 14:00 45% 4.8 km
Do, 24.05. 8:00 72% 8 km
Do, 24.05. 2:00 69% 30 km
Mi, 23.05. 20:00 54% 15 km
Mi, 23.05. 14:00 47% 7 km
Ortszeit Relative Feuchte Sichtweite
Fr, 25.05. 10:10 62% -
Fr, 25.05. 10:00 64% 5.0 km
Fr, 25.05. 9:50 64% -
Fr, 25.05. 9:40 64% -
Fr, 25.05. 9:30 66% 4.1 km
Fr, 25.05. 9:20 66% -
Fr, 25.05. 9:00 69% 5.0 km
Fr, 25.05. 8:30 73% 5.0 km
Fr, 25.05. 8:00 76% 6 km
Fr, 25.05. 7:30 80% 14 km
Fr, 25.05. 7:00 82% 15 km
Ortszeit Niederschlagsmenge Niederschlagsart
Fr, 25.05. 8:00 0.0 l/m2 in 12 Std. -
Fr, 25.05. 2:00 0.0 l/m2 in 6 Std. -
Do, 24.05. 20:00 0.0 l/m2 in 12 Std. -
Do, 24.05. 14:00 0.0 l/m2 in 6 Std. -
Do, 24.05. 8:00 0.0 l/m2 in 12 Std. -
Do, 24.05. 2:00 0.0 l/m2 in 6 Std. -
Mi, 23.05. 20:00 0.0 l/m2 in 12 Std. -
Mi, 23.05. 14:00 0.0 l/m2 in 6 Std. -
Ortszeit Niederschlagsmenge Niederschlagsart
Fr, 25.05. 10:10 keine Meldung -
Fr, 25.05. 10:00 0.0 l/m2 in 1 Std. -
Fr, 25.05. 9:50 keine Meldung -
Fr, 25.05. 9:40 keine Meldung -
Fr, 25.05. 9:30 0.0 l/m2 in 1 Std. -
Fr, 25.05. 9:20 keine Meldung -
Fr, 25.05. 9:00 0.0 l/m2 in 1 Std. -
Fr, 25.05. 8:30 0.0 l/m2 in 1 Std. -
Fr, 25.05. 8:00 0.0 l/m2 in 1 Std. -
Fr, 25.05. 7:30 0.0 l/m2 in 1 Std. -
Fr, 25.05. 7:00 0.0 l/m2 in 1 Std. -
Ortszeit Stärke Spitze Richtung
km/h Bft. km/h Grad Sektor
Fr, 25.05. 8:00 31 5 48 100° O
Fr, 25.05. 2:00 32 5 47 90° O
Do, 24.05. 20:00 37 5 54 90° O
Do, 24.05. 14:00 33 5 46 100° O
Do, 24.05. 8:00 18 3 25 80° O
Do, 24.05. 2:00 17 3 33 60° NO
Mi, 23.05. 20:00 28 4 39 360° N
Mi, 23.05. 14:00 22 4 28 320° NW
Ortszeit Stärke Spitze Richtung
km/h Bft. km/h Grad Sektor
Fr, 25.05. 10:10 25 4 - 90° O
Fr, 25.05. 10:00 28 4 39 90° O
Fr, 25.05. 9:50 28 4 - 90° O
Fr, 25.05. 9:40 28 4 - 90° O
Fr, 25.05. 9:30 31 5 39 90° O
Fr, 25.05. 9:20 31 5 - 90° O
Fr, 25.05. 9:00 32 5 40 90° O
Fr, 25.05. 8:30 29 5 40 90° O
Fr, 25.05. 8:00 31 5 44 100° O
Fr, 25.05. 7:30 31 5 44 90° O
Fr, 25.05. 7:00 31 5 43 90° O
Ortszeit Untergrenze Bedeckung Gattung
total tief tief mittel hoch
Fr, 25.05. 8:00 2100 m 7/8 3/8 - - -
Fr, 25.05. 2:00 3000 m 1/8 1/8 - - -
Do, 24.05. 20:00 - 0/8 0/8 - - -
Do, 24.05. 14:00 - 0/8 0/8 - - -
Do, 24.05. 8:00 - 0/8 0/8 - - -
Do, 24.05. 2:00 - 0/8 0/8 - - -
Mi, 23.05. 20:00 2400 m 1/8 1/8 - - -
Mi, 23.05. 14:00 - 0/8 0/8 - - -
Ortszeit Bedeckungsgrad in Achtel und Wolkenuntergrenze
Fr, 25.05. 10:10 keine Wolken
Fr, 25.05. 10:00 2(10500m)
Fr, 25.05. 9:50 2(10500m)
Fr, 25.05. 9:40 4(10500m)
Fr, 25.05. 9:30 1(1800m) 6(10500m)
Fr, 25.05. 9:20 1(1800m) 6(10500m)
Fr, 25.05. 9:00 7(10500m) 5(10500m)
Fr, 25.05. 8:30 7(10500m)
Fr, 25.05. 8:00 3(2100m) 7(10500m)
Fr, 25.05. 7:30 1(2100m)
Fr, 25.05. 7:00 keine Wolken
Ortszeit Luftdruck NN (hPa) Tendenz (hPa in 3 Std.)
Fr, 25.05. 8:00 1024 + 0,4
Fr, 25.05. 2:00 1024 - 0,6
Do, 24.05. 20:00 1023 - 0,9
Do, 24.05. 14:00 1026 - 0,6
Do, 24.05. 8:00 1027 + 0,2
Do, 24.05. 2:00 1027 + 0,5
Mi, 23.05. 20:00 1025 - 0,1
Mi, 23.05. 14:00 1025 + 0,6
Ortszeit Luftdruck NN (hPa) Tendenz (hPa in 3 Std.)
Fr, 25.05. 10:10 1024 keine Meldung
Fr, 25.05. 10:00 1024 + 0,4
Fr, 25.05. 9:50 1024 keine Meldung
Fr, 25.05. 9:40 1024 keine Meldung
Fr, 25.05. 9:30 1024 + 0,4
Fr, 25.05. 9:20 1024 keine Meldung
Fr, 25.05. 9:00 1024 + 0,4
Fr, 25.05. 8:30 1024 + 0,5
Fr, 25.05. 8:00 1024 + 0,4
Fr, 25.05. 7:30 1024 + 0,4
Fr, 25.05. 7:00 1023 + 0,2
Ortszeit Schneehöhe (cm)
Fr, 25.05. 8:00 0
Fr, 25.05. 2:00 0
Do, 24.05. 20:00 0
Do, 24.05. 14:00 0
Do, 24.05. 8:00 0
Do, 24.05. 2:00 0
Mi, 23.05. 20:00 0
Mi, 23.05. 14:00 0
Ortszeit Schneehöhe (cm)
Fr, 25.05. 10:10 0
Fr, 25.05. 10:00 0
Fr, 25.05. 9:50 0
Fr, 25.05. 9:40 0
Fr, 25.05. 9:30 0
Fr, 25.05. 9:20 0
Fr, 25.05. 9:00 0
Fr, 25.05. 8:30 0
Fr, 25.05. 8:00 0
Fr, 25.05. 7:30 0
Fr, 25.05. 7:00 0
Link zu dieser Seite / Seite empfehlen

Das Wetter in ...